createdAt,value
2018-07-19T00:01:37.284Z,85.40
2018-07-19T00:04:06.004Z,85.80
2018-07-19T00:06:34.609Z,85.80
2018-07-19T00:09:04.353Z,85.80
2018-07-19T00:11:33.040Z,86.40
2018-07-19T00:14:01.629Z,86.20
2018-07-19T00:16:30.336Z,86.60
2018-07-19T00:18:58.982Z,86.70
2018-07-19T00:21:27.636Z,86.70
2018-07-19T00:23:56.217Z,86.40
2018-07-19T00:26:24.860Z,86.00
2018-07-19T00:28:53.476Z,85.80
2018-07-19T00:31:22.016Z,86.00
2018-07-19T00:33:50.691Z,86.20
2018-07-19T00:36:19.349Z,86.30
2018-07-19T00:38:47.977Z,86.30
2018-07-19T00:41:16.640Z,86.30
2018-07-19T00:43:45.346Z,86.30
2018-07-19T00:46:14.005Z,87.20
2018-07-19T00:48:42.697Z,86.80
2018-07-19T00:51:11.354Z,86.50
2018-07-19T00:53:40.111Z,86.70
2018-07-19T00:56:08.749Z,86.60
2018-07-19T01:01:34.179Z,87.00
2018-07-19T01:04:02.920Z,87.30
2018-07-19T01:06:31.567Z,87.30
2018-07-19T01:09:00.196Z,87.30
2018-07-19T01:11:28.880Z,87.30
2018-07-19T01:13:57.565Z,87.90
2018-07-19T01:16:26.189Z,87.90
2018-07-19T01:18:54.885Z,88.00
2018-07-19T01:21:23.538Z,88.20
2018-07-19T01:23:52.270Z,88.30
2018-07-19T01:26:20.996Z,88.30
2018-07-19T01:28:49.717Z,88.10
2018-07-19T01:31:18.466Z,88.20
2018-07-19T01:33:47.182Z,88.10
2018-07-19T01:36:15.849Z,88.00
2018-07-19T01:38:44.470Z,88.10
2018-07-19T01:41:24.127Z,88.10
2018-07-19T01:43:52.761Z,88.20
2018-07-19T01:46:21.446Z,88.10
2018-07-19T01:48:50.116Z,88.30
2018-07-19T01:51:18.757Z,88.40
2018-07-19T01:53:47.380Z,88.60
2018-07-19T01:56:16.086Z,88.50
2018-07-19T01:58:44.772Z,88.40
2018-07-19T02:01:13.508Z,88.10
2018-07-19T02:03:42.160Z,87.90
2018-07-19T02:06:10.784Z,88.10
2018-07-19T02:08:39.452Z,88.50
2018-07-19T02:11:08.116Z,89.20
2018-07-19T02:13:36.730Z,89.10
2018-07-19T02:16:05.636Z,88.90
2018-07-19T02:18:34.257Z,88.70
2018-07-19T02:21:02.957Z,88.80
2018-07-19T02:23:31.561Z,89.10
2018-07-19T02:26:00.249Z,88.90
2018-07-19T02:28:28.910Z,88.80
2018-07-19T02:30:57.590Z,88.80
2018-07-19T02:33:26.224Z,88.50
2018-07-19T02:35:54.972Z,88.60
2018-07-19T02:38:23.600Z,88.60
2018-07-19T02:40:52.309Z,88.80
2018-07-19T02:43:20.962Z,89.40
2018-07-19T02:45:49.595Z,89.10
2018-07-19T02:48:22.729Z,89.10
2018-07-19T02:50:51.577Z,89.20
2018-07-19T02:53:20.270Z,89.30
2018-07-19T02:56:02.625Z,89.70
2018-07-19T02:58:31.316Z,90.10
2018-07-19T03:01:00.000Z,90.00
2018-07-19T03:03:28.686Z,90.10
2018-07-19T03:05:57.378Z,90.20
2018-07-19T03:08:26.153Z,90.50
2018-07-19T03:10:54.805Z,90.30
2018-07-19T03:13:23.515Z,90.50
2018-07-19T03:15:52.255Z,90.60
2018-07-19T03:18:20.898Z,90.60
2018-07-19T03:20:49.580Z,90.70
2018-07-19T03:23:18.288Z,90.60
2018-07-19T03:25:46.956Z,90.90
2018-07-19T03:28:15.589Z,90.80
2018-07-19T03:30:44.341Z,90.60
2018-07-19T03:33:12.963Z,90.70
2018-07-19T03:35:41.628Z,90.90
2018-07-19T03:38:10.277Z,90.80
2018-07-19T03:40:38.880Z,90.50
2018-07-19T03:43:07.541Z,90.90
2018-07-19T03:45:36.350Z,91.00
2018-07-19T03:48:05.140Z,90.70
2018-07-19T03:50:33.764Z,90.90
2018-07-19T03:53:02.380Z,90.80
2018-07-19T03:55:31.009Z,90.70
2018-07-19T03:57:59.730Z,90.70
2018-07-19T04:00:28.433Z,90.50
2018-07-19T04:02:57.120Z,90.10
2018-07-19T04:05:25.715Z,90.10
2018-07-19T04:07:54.399Z,90.10
2018-07-19T04:10:23.132Z,90.60
2018-07-19T04:12:51.836Z,90.60
2018-07-19T04:15:20.556Z,90.50
2018-07-19T04:17:58.014Z,90.40
2018-07-19T04:20:27.865Z,90.20
2018-07-19T04:22:56.853Z,90.30
2018-07-19T04:25:25.945Z,90.20
2018-07-19T04:27:55.401Z,90.00
2018-07-19T04:30:24.084Z,89.90
2018-07-19T04:32:52.814Z,90.40
2018-07-19T04:35:21.668Z,90.40
2018-07-19T04:37:50.289Z,90.50
2018-07-19T04:40:18.994Z,90.40
2018-07-19T04:42:47.674Z,90.30
2018-07-19T04:45:16.344Z,90.40
2018-07-19T04:47:45.009Z,90.30
2018-07-19T04:50:13.642Z,90.40
2018-07-19T04:52:42.301Z,90.60
2018-07-19T04:55:10.999Z,90.10
2018-07-19T04:57:39.637Z,89.80
2018-07-19T05:00:08.412Z,89.70
2018-07-19T05:02:37.016Z,89.80
2018-07-19T05:08:07.049Z,89.40
2018-07-19T05:10:35.852Z,89.20
2018-07-19T05:13:04.524Z,89.10
2018-07-19T05:15:33.236Z,89.20
2018-07-19T05:18:01.919Z,89.10
2018-07-19T05:20:30.623Z,88.90
2018-07-19T05:22:59.272Z,88.60
2018-07-19T05:25:28.004Z,88.10
2018-07-19T05:27:56.639Z,88.20
2018-07-19T05:30:25.363Z,87.80
2018-07-19T05:32:53.980Z,87.80
2018-07-19T05:37:51.085Z,87.30
2018-07-19T05:40:19.836Z,87.00
2018-07-19T05:42:48.514Z,86.60
2018-07-19T05:45:17.339Z,86.40
2018-07-19T05:47:45.995Z,86.50
2018-07-19T05:50:14.741Z,86.40
2018-07-19T05:52:43.360Z,86.20
2018-07-19T05:55:12.041Z,85.60
2018-07-19T05:57:40.723Z,85.70
2018-07-19T06:00:09.460Z,85.50
2018-07-19T06:02:38.236Z,84.60
2018-07-19T06:05:06.944Z,84.30
2018-07-19T06:07:35.584Z,84.00
2018-07-19T06:10:04.609Z,83.10
2018-07-19T06:12:33.274Z,81.60
2018-07-19T06:15:02.042Z,82.20
2018-07-19T06:17:30.853Z,82.10
2018-07-19T06:19:59.445Z,82.40
2018-07-19T06:22:28.128Z,81.50
2018-07-19T06:24:56.796Z,81.10
2018-07-19T06:27:25.530Z,80.70
2018-07-19T06:29:54.142Z,80.90
2018-07-19T06:32:22.834Z,81.20
2018-07-19T06:34:51.488Z,80.50
2018-07-19T06:37:20.180Z,80.30
2018-07-19T06:39:48.869Z,80.30
2018-07-19T06:42:17.572Z,80.50
2018-07-19T06:44:46.164Z,81.00
2018-07-19T06:47:14.758Z,80.90
2018-07-19T06:49:43.373Z,81.20
2018-07-19T06:52:12.232Z,80.90
2018-07-19T06:54:40.879Z,80.60
2018-07-19T06:57:09.604Z,79.90
2018-07-19T06:59:38.195Z,79.40
2018-07-19T07:02:06.943Z,78.20
2018-07-19T07:04:35.620Z,78.00
2018-07-19T07:07:04.559Z,77.60
2018-07-19T07:09:33.321Z,76.90
2018-07-19T07:12:01.996Z,75.80
2018-07-19T07:14:30.656Z,74.60
2018-07-19T07:16:59.341Z,75.20
2018-07-19T07:19:28.005Z,74.30
2018-07-19T07:21:57.608Z,73.40
2018-07-19T07:24:27.768Z,72.20
2018-07-19T07:26:57.659Z,70.20
2018-07-19T07:29:26.757Z,69.50
2018-07-19T07:32:03.564Z,68.60
2018-07-19T07:34:34.685Z,69.20
2018-07-19T07:37:04.013Z,69.80
2018-07-19T07:39:33.836Z,68.60
2018-07-19T07:42:04.062Z,68.10
2018-07-19T07:44:33.162Z,66.90
2018-07-19T07:47:02.285Z,67.70
2018-07-19T07:49:31.457Z,65.10
2018-07-19T07:52:02.839Z,66.60
2018-07-19T07:54:32.503Z,65.90
2018-07-19T07:57:01.773Z,66.20
2018-07-19T07:59:31.035Z,66.00
2018-07-19T08:02:00.140Z,64.30
2018-07-19T08:04:30.533Z,63.60
2018-07-19T08:06:59.736Z,64.60
2018-07-19T08:09:28.888Z,63.50
2018-07-19T08:11:58.012Z,62.70
2018-07-19T08:14:26.862Z,61.90
2018-07-19T08:19:50.137Z,61.50
2018-07-19T08:22:30.164Z,61.40
2018-07-19T08:24:59.339Z,61.20
2018-07-19T08:27:28.407Z,60.10
2018-07-19T08:29:57.364Z,59.00
2018-07-19T08:32:26.652Z,59.90
2018-07-19T08:34:55.553Z,60.70
2018-07-19T08:37:24.760Z,58.40
2018-07-19T08:39:53.839Z,57.70
2018-07-19T08:42:42.308Z,58.10
2018-07-19T08:45:11.356Z,58.40
2018-07-19T08:47:40.416Z,56.60
2018-07-19T08:50:15.144Z,58.20
2018-07-19T08:52:44.078Z,58.20
2018-07-19T08:55:14.094Z,58.10
2018-07-19T08:57:43.769Z,57.00
2018-07-19T09:00:13.571Z,54.40
2018-07-19T09:02:44.747Z,55.70
2018-07-19T09:05:14.721Z,57.00
2018-07-19T09:07:44.069Z,57.30
2018-07-19T09:10:12.976Z,55.60
2018-07-19T09:12:45.068Z,55.80
2018-07-19T09:15:14.286Z,55.70
2018-07-19T09:17:44.987Z,54.60
2018-07-19T09:20:14.209Z,53.80
2018-07-19T09:22:42.785Z,55.80
2018-07-19T09:25:11.456Z,54.20
2018-07-19T09:27:40.463Z,55.60
2018-07-19T09:30:09.204Z,57.50
2018-07-19T09:32:39.238Z,55.40
2018-07-19T09:35:07.895Z,53.80
2018-07-19T09:40:37.947Z,54.10
2018-07-19T09:43:06.612Z,53.80
2018-07-19T09:45:35.225Z,53.90
2018-07-19T09:48:03.817Z,52.90
2018-07-19T09:50:32.540Z,53.00
2018-07-19T09:53:01.161Z,53.30
2018-07-19T09:55:29.763Z,54.60
2018-07-19T09:57:59.212Z,53.90
2018-07-19T10:00:33.625Z,52.00
2018-07-19T10:03:13.156Z,53.20
2018-07-19T10:05:41.807Z,52.20
2018-07-19T10:08:10.364Z,52.90
2018-07-19T10:10:39.056Z,54.20
2018-07-19T10:13:07.661Z,56.10
2018-07-19T10:15:37.557Z,53.90
2018-07-19T10:18:06.188Z,50.70
2018-07-19T10:20:34.852Z,51.40
2018-07-19T10:23:03.377Z,52.10
2018-07-19T10:25:32.032Z,49.10
2018-07-19T10:28:00.604Z,49.50
2018-07-19T10:30:32.644Z,48.30
2018-07-19T10:33:01.222Z,50.00
2018-07-19T10:35:29.792Z,49.40
2018-07-19T10:37:58.368Z,48.90
2018-07-19T10:40:27.032Z,49.20
2018-07-19T10:42:55.611Z,47.60
2018-07-19T10:45:24.316Z,48.90
2018-07-19T10:47:52.908Z,50.30
2018-07-19T10:50:21.545Z,49.10
2018-07-19T10:52:50.306Z,47.80
2018-07-19T10:55:18.951Z,46.00
2018-07-19T10:57:47.517Z,47.40
2018-07-19T11:00:16.377Z,48.30
2018-07-19T11:02:45.011Z,47.60
2018-07-19T11:05:15.178Z,46.70
2018-07-19T11:07:44.085Z,43.70
2018-07-19T11:10:12.636Z,43.20
2018-07-19T11:12:41.189Z,46.10
2018-07-19T11:15:09.876Z,44.50
2018-07-19T11:17:38.412Z,48.50
2018-07-19T11:20:15.835Z,46.20
2018-07-19T11:22:44.583Z,47.10
2018-07-19T11:25:13.194Z,46.10
2018-07-19T11:27:41.768Z,46.90
2018-07-19T11:30:10.343Z,46.70
2018-07-19T11:32:38.939Z,45.60
2018-07-19T11:35:07.516Z,44.30
2018-07-19T11:37:36.172Z,46.60
2018-07-19T11:40:04.816Z,46.10
2018-07-19T11:42:33.380Z,48.00
2018-07-19T11:45:01.946Z,46.40
2018-07-19T11:47:30.596Z,48.10
2018-07-19T11:49:59.166Z,47.80
2018-07-19T11:52:27.777Z,44.30
2018-07-19T11:54:56.312Z,45.50
2018-07-19T11:57:25.253Z,45.40
2018-07-19T11:59:53.868Z,44.60
2018-07-19T12:02:22.560Z,45.60
2018-07-19T12:04:51.135Z,47.80
2018-07-19T12:07:19.738Z,46.60
2018-07-19T12:09:48.243Z,49.20
2018-07-19T12:12:16.893Z,47.70
2018-07-19T12:14:45.523Z,50.20
2018-07-19T12:17:14.265Z,49.10
2018-07-19T12:19:42.862Z,47.40
2018-07-19T12:22:11.492Z,48.80
2018-07-19T12:24:40.440Z,45.90
2018-07-19T12:27:09.020Z,47.20
2018-07-19T12:29:37.600Z,45.60
2018-07-19T12:32:06.232Z,46.00
2018-07-19T12:34:34.977Z,49.30
2018-07-19T12:37:03.618Z,46.80
2018-07-19T12:39:32.221Z,48.60
2018-07-19T12:42:00.904Z,47.30
2018-07-19T12:44:29.520Z,49.30
2018-07-19T12:47:20.796Z,47.40
2018-07-19T12:49:49.370Z,47.60
2018-07-19T12:52:17.949Z,45.30
2018-07-19T12:54:46.629Z,47.00
2018-07-19T12:57:15.204Z,48.10
2018-07-19T12:59:43.784Z,48.10
2018-07-19T13:02:12.605Z,44.40
2018-07-19T13:04:41.221Z,45.80
2018-07-19T13:07:09.856Z,45.70
2018-07-19T13:09:38.410Z,42.20
2018-07-19T13:12:07.024Z,44.90
2018-07-19T13:14:35.817Z,43.10
2018-07-19T13:17:04.463Z,43.30
2018-07-19T13:19:33.016Z,43.60
2018-07-19T13:22:01.614Z,42.30
2018-07-19T13:24:30.319Z,43.70
2018-07-19T13:26:58.969Z,44.00
2018-07-19T13:29:27.549Z,43.20
2018-07-19T13:31:56.121Z,42.10
2018-07-19T13:34:24.709Z,41.60
2018-07-19T13:36:53.320Z,41.70
2018-07-19T13:39:21.840Z,40.40
2018-07-19T13:41:50.679Z,39.70
2018-07-19T13:44:19.281Z,39.40
2018-07-19T13:46:47.952Z,39.50
2018-07-19T13:49:16.533Z,42.90
2018-07-19T13:51:45.147Z,40.90
2018-07-19T13:54:21.009Z,41.40
2018-07-19T13:56:49.620Z,43.20
2018-07-19T13:59:18.367Z,43.70
2018-07-19T14:01:46.944Z,44.10
2018-07-19T14:04:15.524Z,44.60
2018-07-19T14:06:44.109Z,43.20
2018-07-19T14:09:14.936Z,44.90
2018-07-19T14:11:43.537Z,43.40
2018-07-19T14:14:12.124Z,44.70
2018-07-19T14:16:40.713Z,43.50
2018-07-19T14:19:09.324Z,43.00
2018-07-19T14:21:37.864Z,40.80
2018-07-19T14:24:06.564Z,42.00
2018-07-19T14:26:35.114Z,44.60
2018-07-19T14:29:06.177Z,43.60
2018-07-19T14:31:35.878Z,43.30
2018-07-19T14:34:04.572Z,42.40
2018-07-19T14:36:33.165Z,38.50
2018-07-19T14:39:01.764Z,39.40
2018-07-19T14:41:30.325Z,41.20
2018-07-19T14:43:58.879Z,41.00
2018-07-19T14:46:27.443Z,41.00
2018-07-19T14:48:55.953Z,41.20
2018-07-19T14:51:24.644Z,41.90
2018-07-19T14:53:53.246Z,41.10
2018-07-19T14:56:21.780Z,40.50
2018-07-19T14:58:50.343Z,40.80
2018-07-19T15:01:19.422Z,39.90
2018-07-19T15:03:47.999Z,40.60
2018-07-19T15:06:16.688Z,40.00
2018-07-19T15:08:45.232Z,40.10
2018-07-19T15:11:13.828Z,39.60
2018-07-19T15:13:42.531Z,39.00
2018-07-19T15:16:11.177Z,39.50
2018-07-19T15:18:39.753Z,40.10
2018-07-19T15:21:08.328Z,39.90
2018-07-19T15:23:36.895Z,39.30
2018-07-19T15:26:05.501Z,38.30
2018-07-19T15:28:34.107Z,39.00
2018-07-19T15:31:05.715Z,37.80
2018-07-19T15:33:34.347Z,39.20
2018-07-19T15:36:02.892Z,39.30
2018-07-19T15:38:31.476Z,39.20
2018-07-19T15:41:00.057Z,41.30
2018-07-19T15:43:28.665Z,39.60
2018-07-19T15:45:57.263Z,40.50
2018-07-19T15:48:25.867Z,40.80
2018-07-19T15:50:54.424Z,40.10
2018-07-19T15:53:22.990Z,39.80
2018-07-19T15:55:51.616Z,38.80
2018-07-19T15:58:20.255Z,40.00
2018-07-19T16:00:48.899Z,38.70
2018-07-19T16:03:17.560Z,40.90
2018-07-19T16:05:46.172Z,38.90
2018-07-19T16:08:14.703Z,40.50
2018-07-19T16:10:43.324Z,42.80
2018-07-19T16:13:11.876Z,41.20
2018-07-19T16:15:40.501Z,42.40
2018-07-19T16:18:09.161Z,44.30
2018-07-19T16:20:37.860Z,43.80
2018-07-19T16:23:13.432Z,44.20
2018-07-19T16:25:42.325Z,45.30
2018-07-19T16:28:11.095Z,45.30
2018-07-19T16:30:39.665Z,44.00
2018-07-19T16:33:08.265Z,44.20
2018-07-19T16:35:36.885Z,43.10
2018-07-19T16:38:05.507Z,42.90
2018-07-19T16:40:34.152Z,42.30
2018-07-19T16:43:02.884Z,43.00
2018-07-19T16:45:31.440Z,42.90
2018-07-19T16:47:59.992Z,42.40
2018-07-19T16:50:28.593Z,43.00
2018-07-19T16:52:57.292Z,42.20
2018-07-19T16:55:25.951Z,42.40
2018-07-19T16:57:54.568Z,41.20
2018-07-19T17:00:23.243Z,42.20
2018-07-19T17:02:51.800Z,42.20
2018-07-19T17:05:20.450Z,41.80
2018-07-19T17:07:49.048Z,41.40
2018-07-19T17:10:17.757Z,40.90
2018-07-19T17:12:46.378Z,41.60
2018-07-19T17:15:14.957Z,41.60
2018-07-19T17:17:43.533Z,41.90
2018-07-19T17:20:12.231Z,41.60
2018-07-19T17:22:40.832Z,42.20
2018-07-19T17:25:09.488Z,43.10
2018-07-19T17:27:38.069Z,43.80
2018-07-19T17:30:07.148Z,43.50
2018-07-19T17:32:35.776Z,44.10
2018-07-19T17:35:04.496Z,45.00
2018-07-19T17:37:33.072Z,45.00
2018-07-19T17:40:01.676Z,45.40
2018-07-19T17:42:30.484Z,45.90
2018-07-19T17:44:58.991Z,47.00
2018-07-19T17:47:27.698Z,47.40
2018-07-19T17:49:56.290Z,47.30
2018-07-19T17:52:24.936Z,48.40
2018-07-19T17:54:53.531Z,50.10
2018-07-19T17:57:22.176Z,50.10
2018-07-19T17:59:50.830Z,49.80
2018-07-19T18:02:19.420Z,50.30
2018-07-19T18:04:48.008Z,50.30
2018-07-19T18:07:16.600Z,49.80
2018-07-19T18:09:45.214Z,50.10
2018-07-19T18:12:13.845Z,50.30
2018-07-19T18:14:42.420Z,50.30
2018-07-19T18:17:11.029Z,50.40
2018-07-19T18:19:39.592Z,51.80
2018-07-19T18:22:08.153Z,52.50
2018-07-19T18:24:36.752Z,53.10
2018-07-19T18:27:05.520Z,53.40
2018-07-19T18:29:34.168Z,52.80
2018-07-19T18:32:02.801Z,53.10
2018-07-19T18:34:31.542Z,52.80
2018-07-19T18:37:00.170Z,52.60
2018-07-19T18:39:28.772Z,53.00
2018-07-19T18:41:57.480Z,53.30
2018-07-19T18:44:26.111Z,53.60
2018-07-19T18:46:54.829Z,54.20
2018-07-19T18:49:23.477Z,54.60
2018-07-19T18:51:52.060Z,55.40
2018-07-19T18:54:20.633Z,55.80
2018-07-19T18:56:49.340Z,56.50
2018-07-19T18:59:18.029Z,56.80
2018-07-19T19:01:46.673Z,57.30
2018-07-19T19:04:15.378Z,57.30
2018-07-19T19:06:43.986Z,57.00
2018-07-19T19:09:13.104Z,57.70
2018-07-19T19:11:41.806Z,59.10
2018-07-19T19:14:11.039Z,60.60
2018-07-19T19:16:39.719Z,60.80
2018-07-19T19:19:08.506Z,62.00
2018-07-19T19:21:37.180Z,62.00
2018-07-19T19:24:06.092Z,62.90
2018-07-19T19:26:34.870Z,63.60
2018-07-19T19:29:03.617Z,63.20
2018-07-19T19:31:32.156Z,62.90
2018-07-19T19:34:00.740Z,63.70
2018-07-19T19:36:29.599Z,64.40
2018-07-19T19:38:58.233Z,65.40
2018-07-19T19:41:26.884Z,66.50
2018-07-19T19:43:55.685Z,66.90
2018-07-19T19:46:24.349Z,67.30
2018-07-19T19:48:53.033Z,67.30
2018-07-19T19:51:21.730Z,67.70
2018-07-19T19:53:50.349Z,68.20
2018-07-19T19:56:18.912Z,68.90
2018-07-19T19:58:48.076Z,69.10
2018-07-19T20:01:16.988Z,68.50
2018-07-19T20:03:45.723Z,69.10
2018-07-19T20:06:14.314Z,69.30
2018-07-19T20:08:43.064Z,70.70
2018-07-19T20:11:11.696Z,70.30
2018-07-19T20:13:40.425Z,70.20
2018-07-19T20:16:09.304Z,70.10
2018-07-19T20:18:39.140Z,70.50
2018-07-19T20:21:08.141Z,70.00
2018-07-19T20:23:37.347Z,70.10
2018-07-19T20:26:06.574Z,70.10
2018-07-19T20:28:35.614Z,70.10
2018-07-19T20:31:04.619Z,70.50
2018-07-19T20:33:33.360Z,70.80
2018-07-19T20:36:01.984Z,71.00
2018-07-19T20:38:30.665Z,71.00
2018-07-19T20:40:59.325Z,71.10
2018-07-19T20:43:28.118Z,71.70
2018-07-19T20:45:56.721Z,72.00
2018-07-19T20:48:38.900Z,72.10
2018-07-19T20:51:07.617Z,73.50
2018-07-19T20:53:36.337Z,73.40
2018-07-19T20:56:05.328Z,73.50
2018-07-19T20:58:33.956Z,73.50
2018-07-19T21:01:02.646Z,73.70
2018-07-19T21:03:31.385Z,73.40
2018-07-19T21:06:00.660Z,73.70
2018-07-19T21:08:29.328Z,73.90
2018-07-19T21:10:58.024Z,74.10
2018-07-19T21:13:26.637Z,74.40
2018-07-19T21:15:55.326Z,74.60
2018-07-19T21:18:24.009Z,74.20
2018-07-19T21:20:52.688Z,74.10
2018-07-19T21:23:21.389Z,74.10
2018-07-19T21:25:50.081Z,74.10
2018-07-19T21:28:18.641Z,74.00
2018-07-19T21:30:47.228Z,74.90
2018-07-19T21:33:15.813Z,74.50
2018-07-19T21:35:44.508Z,74.00
2018-07-19T21:38:13.124Z,74.60
2018-07-19T21:40:41.857Z,74.60
2018-07-19T21:43:10.539Z,74.20
2018-07-19T21:45:39.255Z,74.30
2018-07-19T21:48:07.826Z,74.40
2018-07-19T21:50:36.414Z,74.20
2018-07-19T21:53:05.203Z,74.50
2018-07-19T21:55:33.894Z,75.30
2018-07-19T21:58:02.788Z,75.40
2018-07-19T22:00:31.641Z,76.00
2018-07-19T22:03:01.681Z,75.90
2018-07-19T22:05:30.292Z,76.00
2018-07-19T22:07:58.953Z,76.40
2018-07-19T22:10:27.815Z,76.90
2018-07-19T22:12:56.525Z,77.00
2018-07-19T22:15:25.165Z,76.70
2018-07-19T22:17:53.844Z,76.40
2018-07-19T22:20:22.460Z,76.90
2018-07-19T22:22:51.142Z,77.60
2018-07-19T22:25:19.795Z,78.30
2018-07-19T22:27:48.436Z,78.50
2018-07-19T22:30:17.097Z,78.70
2018-07-19T22:32:45.859Z,78.60
2018-07-19T22:35:14.537Z,78.30
2018-07-19T22:37:43.272Z,78.70
2018-07-19T22:40:12.028Z,78.70
2018-07-19T22:42:40.725Z,78.80
2018-07-19T22:45:09.336Z,79.40
2018-07-19T22:47:37.940Z,79.30
2018-07-19T22:50:06.849Z,79.20
2018-07-19T22:52:35.437Z,79.40
2018-07-19T22:55:04.164Z,79.50
2018-07-19T22:57:32.792Z,79.70
2018-07-19T23:00:01.400Z,79.70
2018-07-19T23:02:30.149Z,79.90
2018-07-19T23:04:58.768Z,79.60
2018-07-19T23:07:27.382Z,79.40
2018-07-19T23:09:55.957Z,79.40
2018-07-19T23:12:24.572Z,79.50
2018-07-19T23:14:53.168Z,79.60
2018-07-19T23:17:21.886Z,79.60
2018-07-19T23:19:50.529Z,79.90
2018-07-19T23:22:19.155Z,80.00
2018-07-19T23:24:47.796Z,80.50
2018-07-19T23:27:16.449Z,80.60
2018-07-19T23:29:45.156Z,80.70
2018-07-19T23:32:13.856Z,80.60
2018-07-19T23:34:42.440Z,80.20
2018-07-19T23:37:15.172Z,80.60
2018-07-19T23:39:52.769Z,80.60
2018-07-19T23:42:26.556Z,80.60
2018-07-19T23:45:29.541Z,81.00
2018-07-19T23:47:58.228Z,81.10
2018-07-19T23:50:26.828Z,81.30
2018-07-19T23:52:55.712Z,81.40
2018-07-19T23:55:24.390Z,81.30
2018-07-19T23:57:53.108Z,81.50
